createdAt,value
2018-04-22T00:01:02.909Z,12.90
2018-04-22T00:03:30.368Z,12.57
2018-04-22T00:05:57.810Z,11.43
2018-04-22T00:08:25.263Z,13.45
2018-04-22T00:10:52.699Z,12.82
2018-04-22T00:13:20.158Z,11.18
2018-04-22T00:15:47.600Z,12.05
2018-04-22T00:18:15.064Z,13.93
2018-04-22T00:20:42.514Z,13.57
2018-04-22T00:23:09.965Z,14.80
2018-04-22T00:25:37.391Z,14.55
2018-04-22T00:28:04.846Z,15.02
2018-04-22T00:47:50.171Z,14.68
2018-04-22T00:50:17.616Z,14.70
2018-04-22T00:52:45.073Z,14.57
2018-04-22T00:55:12.524Z,15.65
2018-04-22T00:57:39.965Z,15.60
2018-04-22T01:00:07.418Z,16.35
2018-04-22T01:02:34.862Z,17.48
2018-04-22T01:05:02.314Z,16.58
2018-04-22T01:07:29.748Z,16.92
2018-04-22T01:09:57.193Z,16.70
2018-04-22T01:12:24.636Z,16.30
2018-04-22T01:14:52.082Z,16.20
2018-04-22T01:34:35.723Z,17.15
2018-04-22T01:37:03.161Z,17.37
2018-04-22T01:39:30.617Z,16.27
2018-04-22T01:41:58.059Z,15.52
2018-04-22T01:44:25.544Z,15.32
2018-04-22T01:46:52.977Z,14.45
2018-04-22T01:49:20.422Z,14.27
2018-04-22T01:51:47.869Z,14.68
2018-04-22T01:54:15.328Z,14.55
2018-04-22T01:56:42.860Z,14.80
2018-04-22T01:59:10.308Z,15.68
2018-04-22T02:01:37.788Z,15.88
2018-04-22T02:04:06.019Z,16.25
2018-04-22T02:06:33.465Z,16.15
2018-04-22T02:09:00.924Z,15.38
2018-04-22T02:11:28.379Z,14.50
2018-04-22T02:13:55.829Z,15.18
2018-04-22T02:16:23.359Z,15.65
2018-04-22T02:18:50.800Z,15.30
2018-04-22T02:21:18.265Z,15.65
2018-04-22T02:23:45.709Z,14.63
2018-04-22T02:26:13.169Z,14.10
2018-04-22T02:28:40.617Z,13.25
2018-04-22T02:31:08.072Z,13.50
2018-04-22T02:33:35.517Z,13.95
2018-04-22T02:36:03.736Z,13.55
2018-04-22T02:38:31.180Z,12.43
2018-04-22T02:40:58.651Z,12.40
2018-04-22T02:43:26.089Z,13.05
2018-04-22T02:45:53.541Z,13.43
2018-04-22T02:48:21.763Z,12.48
2018-04-22T02:50:49.233Z,13.80
2018-04-22T02:53:16.680Z,14.15
2018-04-22T02:55:44.127Z,12.90
2018-04-22T02:58:11.580Z,14.45
2018-04-22T03:00:39.058Z,14.87
2018-04-22T03:03:06.513Z,13.75
2018-04-22T03:05:33.953Z,15.40
2018-04-22T03:08:02.180Z,15.05
2018-04-22T03:10:29.636Z,16.00
2018-04-22T03:12:57.102Z,16.00
2018-04-22T03:15:24.573Z,15.85
2018-04-22T03:17:52.035Z,15.75
2018-04-22T03:20:19.481Z,16.60
2018-04-22T03:22:46.958Z,16.17
2018-04-22T03:25:14.400Z,16.85
2018-04-22T03:27:41.856Z,17.17
2018-04-22T03:30:09.320Z,16.65
2018-04-22T03:32:36.768Z,16.40
2018-04-22T03:35:04.220Z,16.77
2018-04-22T03:37:32.439Z,16.23
2018-04-22T03:39:59.896Z,16.60
2018-04-22T03:42:27.351Z,16.20
2018-04-22T03:44:54.805Z,16.25
2018-04-22T03:47:22.268Z,16.08
2018-04-22T03:49:49.704Z,16.25
2018-04-22T03:52:17.921Z,15.27
2018-04-22T03:54:45.360Z,16.25
2018-04-22T03:57:12.835Z,17.17
2018-04-22T03:59:40.280Z,15.93
2018-04-22T04:02:08.489Z,15.50
2018-04-22T04:04:35.942Z,15.73
2018-04-22T04:07:03.405Z,15.88
2018-04-22T04:09:30.855Z,16.40
2018-04-22T04:11:58.312Z,16.37
2018-04-22T04:14:25.782Z,17.15
2018-04-22T04:16:54.009Z,15.15
2018-04-22T04:19:33.236Z,15.30
2018-04-22T04:22:12.605Z,16.67
2018-04-22T04:24:54.307Z,17.20
2018-04-22T04:30:24.973Z,17.10
2018-04-22T04:32:52.431Z,16.37
2018-04-22T04:35:19.863Z,16.73
2018-04-22T04:37:48.107Z,17.40
2018-04-22T04:40:15.554Z,15.23
2018-04-22T04:42:43.003Z,15.40
2018-04-22T04:45:10.455Z,16.92
2018-04-22T04:47:37.904Z,16.37
2018-04-22T04:50:05.368Z,17.08
2018-04-22T04:52:32.804Z,17.08
2018-04-22T04:55:01.032Z,18.10
2018-04-22T04:57:28.491Z,17.85
2018-04-22T04:59:55.949Z,16.50
2018-04-22T05:02:24.159Z,17.33
2018-04-22T05:04:51.621Z,15.75
2018-04-22T05:07:19.066Z,17.62
2018-04-22T05:09:46.520Z,18.17
2018-04-22T05:12:13.972Z,16.83
2018-04-22T05:14:42.091Z,17.48
2018-04-22T05:17:09.537Z,16.60
2018-04-22T05:19:37.015Z,16.92
2018-04-22T05:22:04.439Z,16.45
2018-04-22T05:24:31.893Z,16.15
2018-04-22T05:26:59.336Z,15.98
2018-04-22T05:29:27.551Z,16.95
2018-04-22T05:31:55.020Z,17.58
2018-04-22T05:34:23.235Z,16.58
2018-04-22T05:36:50.689Z,15.82
2018-04-22T05:39:18.159Z,16.90
2018-04-22T05:41:45.632Z,16.17
2018-04-22T05:44:13.051Z,16.15
2018-04-22T05:46:40.527Z,14.87
2018-04-22T05:49:07.959Z,14.63
2018-04-22T05:51:35.397Z,13.68
2018-04-22T05:54:03.600Z,15.27
2018-04-22T05:56:31.058Z,14.60
2018-04-22T05:58:58.515Z,15.00
2018-04-22T06:01:25.984Z,15.80
2018-04-22T06:03:54.210Z,15.45
2018-04-22T06:06:21.671Z,15.18
2018-04-22T06:08:49.127Z,14.82
2018-04-22T06:11:16.593Z,14.85
2018-04-22T06:13:44.044Z,12.37
2018-04-22T06:16:11.515Z,11.40
2018-04-22T06:18:38.975Z,12.52
2018-04-22T06:21:06.426Z,11.52
2018-04-22T06:23:33.865Z,11.80
2018-04-22T06:26:01.340Z,12.93
2018-04-22T06:28:28.790Z,12.00
2018-04-22T06:30:56.256Z,12.07
2018-04-22T06:33:23.702Z,11.85
2018-04-22T06:35:51.177Z,11.80
2018-04-22T06:38:18.621Z,11.12
2018-04-22T06:40:46.071Z,10.10
2018-04-22T06:43:14.285Z,10.73
2018-04-22T06:45:41.740Z,10.05
2018-04-22T06:48:09.197Z,10.60
2018-04-22T06:50:36.653Z,10.18
2018-04-22T06:53:04.992Z,9.70
2018-04-22T06:55:32.446Z,9.40
2018-04-22T06:57:59.909Z,9.10
2018-04-22T07:00:27.361Z,9.07
2018-04-22T07:02:54.822Z,9.18
2018-04-22T07:05:22.317Z,9.90
2018-04-22T07:07:49.734Z,9.52
2018-04-22T07:10:17.185Z,10.30
2018-04-22T07:12:44.649Z,10.65
2018-04-22T07:15:12.104Z,10.73
2018-04-22T07:17:39.551Z,11.23
2018-04-22T07:20:07.008Z,12.40
2018-04-22T07:22:35.234Z,12.10
2018-04-22T07:25:02.711Z,13.18
2018-04-22T07:27:30.160Z,13.68
2018-04-22T07:29:57.609Z,12.57
2018-04-22T07:32:25.066Z,13.88
2018-04-22T07:34:52.533Z,12.80
2018-04-22T07:37:19.990Z,14.82
2018-04-22T07:39:47.450Z,14.23
2018-04-22T07:42:14.912Z,12.07
2018-04-22T07:44:42.375Z,13.02
2018-04-22T07:47:09.828Z,13.18
2018-04-22T07:49:37.255Z,12.75
2018-04-22T07:52:05.512Z,11.25
2018-04-22T07:54:32.963Z,13.13
2018-04-22T07:57:00.429Z,11.45
2018-04-22T07:59:27.889Z,11.23
2018-04-22T08:01:55.360Z,10.90
2018-04-22T08:04:22.816Z,12.27
2018-04-22T08:06:50.344Z,11.20
2018-04-22T08:09:17.768Z,11.00
2018-04-22T08:11:45.212Z,14.35
2018-04-22T08:14:12.682Z,14.43
2018-04-22T08:16:40.119Z,11.93
2018-04-22T08:19:07.573Z,11.23
2018-04-22T08:21:35.029Z,13.40
2018-04-22T08:24:02.493Z,11.18
2018-04-22T08:26:29.941Z,18.35
2018-04-22T08:28:57.406Z,12.60
2018-04-22T08:31:24.843Z,10.32
2018-04-22T08:33:54.045Z,10.52
2018-04-22T08:36:21.424Z,9.10
2018-04-22T08:38:48.876Z,12.55
2018-04-22T08:41:17.185Z,12.32
2018-04-22T08:43:44.623Z,9.63
2018-04-22T08:46:12.061Z,10.35
2018-04-22T08:48:39.514Z,10.27
2018-04-22T08:51:06.976Z,10.80
2018-04-22T08:53:34.441Z,12.75
2018-04-22T08:56:01.877Z,9.18
2018-04-22T08:58:29.333Z,11.40
2018-04-22T09:00:56.759Z,9.30
2018-04-22T09:03:24.219Z,8.82
2018-04-22T09:05:52.432Z,8.68
2018-04-22T09:08:19.884Z,9.35
2018-04-22T09:10:47.364Z,8.85
2018-04-22T09:13:15.553Z,7.75
2018-04-22T09:15:42.994Z,8.25
2018-04-22T09:18:10.814Z,8.20
2018-04-22T09:20:38.315Z,8.40
2018-04-22T09:23:05.968Z,7.62
2018-04-22T09:25:33.618Z,9.82
2018-04-22T09:28:01.078Z,8.23
2018-04-22T09:30:29.320Z,7.60
2018-04-22T09:33:01.252Z,7.97
2018-04-22T09:35:28.759Z,8.23
2018-04-22T09:37:56.218Z,8.55
2018-04-22T09:40:23.700Z,8.35
2018-04-22T09:42:51.133Z,8.18
2018-04-22T09:45:18.632Z,7.37
2018-04-22T09:47:46.851Z,7.72
2018-04-22T09:50:14.308Z,7.75
2018-04-22T09:52:41.755Z,6.60
2018-04-22T09:55:09.964Z,6.30
2018-04-22T09:57:37.418Z,6.55
2018-04-22T10:00:04.882Z,6.28
2018-04-22T10:02:33.102Z,6.60
2018-04-22T10:05:06.184Z,7.30
2018-04-22T10:07:33.630Z,7.43
2018-04-22T10:10:01.179Z,5.57
2018-04-22T10:12:28.621Z,6.53
2018-04-22T10:14:56.081Z,5.65
2018-04-22T10:17:23.529Z,5.45
2018-04-22T10:19:51.762Z,7.82
2018-04-22T10:22:19.202Z,5.50
2018-04-22T10:24:46.652Z,5.78
2018-04-22T10:27:14.123Z,4.90
2018-04-22T10:29:41.576Z,5.40
2018-04-22T10:32:09.028Z,6.30
2018-04-22T10:34:37.319Z,5.07
2018-04-22T10:37:05.515Z,5.32
2018-04-22T10:39:32.969Z,5.07
2018-04-22T10:42:00.425Z,6.03
2018-04-22T10:44:27.894Z,4.62
2018-04-22T10:46:55.364Z,5.55
2018-04-22T10:49:22.835Z,5.53
2018-04-22T10:51:50.268Z,4.93
2018-04-22T10:54:18.491Z,8.98
2018-04-22T10:56:45.933Z,4.95
2018-04-22T10:59:13.460Z,5.30
2018-04-22T11:01:40.836Z,5.82
2018-04-22T11:04:08.300Z,5.68
2018-04-22T11:06:36.501Z,8.73
2018-04-22T11:09:06.669Z,5.62
2018-04-22T11:11:34.105Z,7.30
2018-04-22T11:14:01.595Z,5.45
2018-04-22T11:16:29.055Z,5.80
2018-04-22T11:18:56.495Z,5.37
2018-04-22T11:21:23.962Z,7.35
2018-04-22T11:23:51.425Z,5.37
2018-04-22T11:26:18.904Z,4.57
2018-04-22T11:28:46.355Z,4.50
2018-04-22T11:31:13.821Z,5.85
2018-04-22T11:33:41.267Z,6.07
2018-04-22T11:36:08.741Z,5.50
2018-04-22T11:38:36.190Z,5.57
2018-04-22T11:41:03.657Z,5.20
2018-04-22T11:43:31.099Z,5.50
2018-04-22T11:45:58.567Z,5.72
2018-04-22T11:48:26.014Z,4.90
2018-04-22T11:50:53.480Z,8.35
2018-04-22T11:53:20.941Z,4.97
2018-04-22T11:55:48.404Z,6.80
2018-04-22T11:58:15.833Z,5.75
2018-04-22T12:00:44.043Z,8.02
2018-04-22T12:03:11.485Z,5.30
2018-04-22T12:05:39.752Z,6.62
2018-04-22T12:08:07.967Z,7.50
2018-04-22T12:10:35.430Z,5.05
2018-04-22T12:13:02.872Z,5.53
2018-04-22T12:15:30.434Z,5.30
2018-04-22T12:17:59.748Z,6.47
2018-04-22T12:20:27.245Z,6.32
2018-04-22T12:23:00.727Z,5.45
2018-04-22T12:25:28.169Z,6.47
2018-04-22T12:27:55.630Z,6.15
2018-04-22T12:30:23.090Z,5.15
2018-04-22T12:32:51.330Z,3.95
2018-04-22T12:35:18.802Z,4.68
2018-04-22T12:37:46.245Z,3.80
2018-04-22T12:40:13.695Z,4.70
2018-04-22T12:42:46.802Z,5.75
2018-04-22T12:45:14.276Z,4.28
2018-04-22T12:47:41.717Z,5.93
2018-04-22T12:50:09.196Z,5.28
2018-04-22T12:52:44.961Z,3.53
2018-04-22T12:55:12.441Z,5.25
2018-04-22T12:57:40.686Z,3.62
2018-04-22T13:00:08.120Z,3.95
2018-04-22T13:02:35.598Z,3.22
2018-04-22T13:05:03.144Z,6.60
2018-04-22T13:07:30.603Z,3.85
2018-04-22T13:09:58.048Z,4.87
2018-04-22T13:12:26.264Z,3.58
2018-04-22T13:14:53.716Z,4.90
2018-04-22T13:17:21.934Z,5.32
2018-04-22T13:19:49.378Z,4.28
2018-04-22T13:22:16.835Z,6.97
2018-04-22T13:24:44.287Z,4.90
2018-04-22T13:27:12.511Z,4.12
2018-04-22T13:29:39.946Z,5.05
2018-04-22T13:32:07.383Z,5.30
2018-04-22T13:34:34.837Z,5.55
2018-04-22T13:37:02.310Z,3.78
2018-04-22T13:39:29.748Z,5.85
2018-04-22T13:41:57.952Z,3.25
2018-04-22T13:44:25.404Z,3.85
2018-04-22T13:46:52.848Z,4.03
2018-04-22T13:49:20.298Z,6.32
2018-04-22T13:51:47.736Z,5.20
2018-04-22T13:54:15.180Z,5.40
2018-04-22T13:56:42.630Z,7.05
2018-04-22T13:59:10.059Z,4.15
2018-04-22T14:01:37.517Z,3.58
2018-04-22T14:04:05.728Z,3.67
2018-04-22T14:06:33.176Z,3.60
2018-04-22T14:09:01.388Z,4.65
2018-04-22T14:11:28.844Z,3.62
2018-04-22T14:13:56.303Z,5.43
2018-04-22T14:16:23.767Z,4.32
2018-04-22T14:18:51.207Z,4.50
2018-04-22T14:21:18.691Z,4.00
2018-04-22T14:23:46.122Z,3.75
2018-04-22T14:26:13.582Z,3.90
2018-04-22T14:28:41.026Z,4.05
2018-04-22T14:31:09.271Z,3.50
2018-04-22T14:33:36.706Z,3.60
2018-04-22T14:36:04.155Z,5.32
2018-04-22T14:38:31.615Z,6.40
2018-04-22T14:40:59.063Z,4.97
2018-04-22T14:43:26.526Z,3.40
2018-04-22T14:46:05.844Z,6.18
2018-04-22T14:48:46.108Z,7.53
2018-04-22T14:51:14.341Z,4.03
2018-04-22T14:53:41.796Z,6.28
2018-04-22T14:56:09.253Z,6.18
2018-04-22T14:58:36.707Z,4.57
2018-04-22T15:01:04.160Z,4.07
2018-04-22T15:03:31.611Z,4.25
2018-04-22T15:05:59.075Z,5.82
2018-04-22T15:08:26.529Z,4.30
2018-04-22T15:10:53.986Z,4.20
2018-04-22T15:13:22.247Z,5.00
2018-04-22T15:15:49.653Z,3.40
2018-04-22T15:18:17.109Z,3.47
2018-04-22T15:20:44.575Z,4.10
2018-04-22T15:23:12.783Z,3.70
2018-04-22T15:25:40.217Z,3.97
2018-04-22T15:28:07.684Z,3.83
2018-04-22T15:30:35.143Z,6.32
2018-04-22T15:33:02.598Z,3.00
2018-04-22T15:35:30.039Z,4.12
2018-04-22T15:37:58.271Z,3.80
2018-04-22T15:40:25.731Z,5.35
2018-04-22T15:42:53.187Z,3.72
2018-04-22T15:45:20.624Z,4.97
2018-04-22T15:47:48.090Z,4.25
2018-04-22T15:50:15.612Z,5.32
2018-04-22T15:52:43.053Z,5.43
2018-04-22T15:55:10.531Z,3.65
2018-04-22T15:57:37.982Z,3.22
2018-04-22T16:00:05.436Z,4.82
2018-04-22T16:02:32.897Z,4.57
2018-04-22T16:05:00.347Z,4.25
2018-04-22T16:07:31.706Z,3.80
2018-04-22T16:10:00.065Z,5.37
2018-04-22T16:12:27.528Z,5.35
2018-04-22T16:14:55.746Z,6.12
2018-04-22T16:17:23.189Z,4.87
2018-04-22T16:19:50.662Z,5.47
2018-04-22T16:22:18.111Z,4.20
2018-04-22T16:24:45.588Z,5.90
2018-04-22T16:27:13.029Z,5.37
2018-04-22T16:29:41.965Z,3.47
2018-04-22T16:32:09.408Z,4.10
2018-04-22T16:34:36.863Z,7.03
2018-04-22T16:37:04.306Z,6.22
2018-04-22T16:39:31.768Z,3.58
2018-04-22T16:41:59.211Z,6.40
2018-04-22T16:44:26.671Z,3.80
2018-04-22T16:46:54.125Z,5.43
2018-04-22T16:49:22.348Z,5.18
2018-04-22T16:51:49.797Z,4.28
2018-04-22T16:54:17.264Z,3.45
2018-04-22T16:56:44.729Z,5.32
2018-04-22T16:59:13.095Z,4.80
2018-04-22T17:01:40.555Z,3.62
2018-04-22T17:04:08.030Z,7.70
2018-04-22T17:06:35.473Z,4.20
2018-04-22T17:09:02.977Z,3.58
2018-04-22T17:11:30.420Z,3.92
2018-04-22T17:13:57.900Z,5.70
2018-04-22T17:16:25.335Z,7.75
2018-04-22T17:18:52.812Z,10.85
2018-04-22T17:21:20.265Z,5.20
2018-04-22T17:23:47.710Z,6.95
2018-04-22T17:26:15.161Z,6.05
2018-04-22T17:31:34.474Z,6.28
2018-04-22T17:34:01.913Z,5.03
2018-04-22T17:36:29.369Z,8.13
2018-04-22T17:38:57.595Z,5.22
2018-04-22T17:41:25.034Z,3.78
2018-04-22T17:43:52.493Z,4.70
2018-04-22T17:46:19.940Z,3.95
2018-04-22T17:48:47.386Z,5.53
2018-04-22T17:51:15.621Z,4.93
2018-04-22T17:53:43.089Z,4.57
2018-04-22T17:56:10.545Z,5.47
2018-04-22T17:58:37.984Z,3.97
2018-04-22T18:01:05.482Z,6.40
2018-04-22T18:03:32.918Z,4.35
2018-04-22T18:06:00.382Z,3.65
2018-04-22T18:08:27.846Z,4.03
2018-04-22T18:10:55.327Z,3.33
2018-04-22T18:13:22.791Z,3.95
2018-04-22T18:15:50.245Z,4.43
2018-04-22T18:18:17.685Z,4.82
2018-04-22T18:20:45.145Z,4.22
2018-04-22T18:23:12.581Z,3.42
2018-04-22T18:25:40.798Z,4.72
2018-04-22T18:28:08.249Z,4.95
2018-04-22T18:30:35.714Z,5.95
2018-04-22T18:33:03.152Z,4.78
2018-04-22T18:35:31.378Z,3.35
2018-04-22T18:37:58.822Z,2.72
2018-04-22T18:40:26.292Z,3.55
2018-04-22T18:42:54.489Z,2.42
2018-04-22T18:45:21.944Z,3.17
2018-04-22T18:47:49.385Z,5.32
2018-04-22T18:50:16.826Z,2.92
2018-04-22T18:52:44.273Z,4.47
2018-04-22T18:55:12.485Z,2.75
2018-04-22T18:57:39.946Z,3.70
2018-04-22T19:00:07.400Z,3.58
2018-04-22T19:02:34.837Z,3.53
2018-04-22T19:05:03.053Z,2.20
2018-04-22T19:07:30.512Z,3.10
2018-04-22T19:09:57.969Z,2.47
2018-04-22T19:12:25.423Z,2.53
2018-04-22T19:14:52.860Z,4.12
2018-04-22T19:17:21.081Z,4.03
2018-04-22T19:19:48.526Z,5.10
2018-04-22T19:22:16.724Z,2.25
2018-04-22T19:24:44.209Z,2.55
2018-04-22T19:27:11.617Z,3.78
2018-04-22T19:29:39.846Z,2.72
2018-04-22T19:32:07.284Z,4.18
2018-04-22T19:34:34.728Z,3.37
2018-04-22T19:37:02.183Z,2.50
2018-04-22T19:39:31.397Z,4.95
2018-04-22T19:41:58.868Z,3.05
2018-04-22T19:44:26.304Z,2.58
2018-04-22T19:46:54.549Z,4.57
2018-04-22T19:49:21.982Z,3.95
2018-04-22T19:51:49.443Z,2.90
2018-04-22T19:54:16.926Z,7.00
2018-04-22T19:56:44.375Z,4.62
2018-04-22T19:59:11.845Z,3.17
2018-04-22T20:01:39.317Z,3.92
2018-04-22T20:04:06.852Z,3.33
2018-04-22T20:06:34.317Z,4.10
2018-04-22T20:09:01.769Z,4.53
2018-04-22T20:11:29.226Z,4.93
2018-04-22T20:13:57.440Z,2.87
2018-04-22T20:16:24.885Z,4.18
2018-04-22T20:18:52.329Z,3.53
2018-04-22T20:21:19.766Z,4.15
2018-04-22T20:23:47.232Z,3.60
2018-04-22T20:26:15.474Z,4.03
2018-04-22T20:28:42.950Z,3.20
2018-04-22T20:31:10.374Z,3.65
2018-04-22T20:33:37.845Z,4.47
2018-04-22T20:36:05.299Z,4.25
2018-04-22T20:38:32.751Z,4.65
2018-04-22T20:41:00.185Z,3.67
2018-04-22T20:43:28.415Z,3.25
2018-04-22T20:45:55.868Z,4.60
2018-04-22T20:48:23.312Z,2.83
2018-04-22T20:50:50.776Z,4.03
2018-04-22T20:53:18.252Z,2.78
2018-04-22T20:55:45.690Z,4.55
2018-04-22T20:58:13.905Z,3.20
2018-04-22T21:00:41.380Z,2.87
2018-04-22T21:03:08.827Z,5.60
2018-04-22T21:05:36.279Z,4.78
2018-04-22T21:08:03.725Z,3.62
2018-04-22T21:10:31.168Z,4.30
2018-04-22T21:12:59.396Z,4.20
2018-04-22T21:15:26.858Z,4.25
2018-04-22T21:17:54.287Z,3.15
2018-04-22T21:20:22.503Z,4.03
2018-04-22T21:22:49.949Z,4.20
2018-04-22T21:25:17.408Z,3.10
2018-04-22T21:27:44.851Z,8.63
2018-04-22T21:30:13.078Z,3.35
2018-04-22T21:32:40.521Z,4.90
2018-04-22T21:35:07.977Z,5.70
2018-04-22T21:37:35.420Z,3.72
2018-04-22T21:40:03.634Z,5.55
2018-04-22T21:42:31.093Z,4.15
2018-04-22T21:44:58.555Z,3.90
2018-04-22T21:47:26.760Z,4.10
2018-04-22T21:49:54.225Z,4.35
2018-04-22T21:52:21.675Z,2.90
2018-04-22T21:54:49.121Z,4.80
2018-04-22T21:57:17.341Z,4.03
2018-04-22T21:59:44.780Z,4.40
2018-04-22T22:02:12.244Z,3.08
2018-04-22T22:04:39.712Z,3.67
2018-04-22T22:07:07.140Z,2.87
2018-04-22T22:09:34.599Z,5.20
2018-04-22T22:12:02.052Z,6.22
2018-04-22T22:14:29.485Z,4.18
2018-04-22T22:16:57.703Z,3.33
2018-04-22T22:19:25.179Z,3.62
2018-04-22T22:21:52.614Z,2.97
2018-04-22T22:24:20.050Z,4.35
2018-04-22T22:26:47.519Z,4.53
2018-04-22T22:29:15.737Z,4.32
2018-04-22T22:31:43.196Z,4.40
2018-04-22T22:34:10.631Z,6.68
2018-04-22T22:36:38.843Z,4.68
2018-04-22T22:39:06.287Z,4.28
2018-04-22T22:41:33.735Z,4.65
2018-04-22T22:46:35.991Z,3.92
2018-04-22T22:49:03.445Z,4.62
2018-04-22T22:51:30.893Z,3.55
2018-04-22T22:53:58.328Z,4.93
2018-04-22T22:56:25.778Z,3.72
2018-04-22T22:58:53.999Z,4.45
2018-04-22T23:01:21.449Z,3.45
2018-04-22T23:03:48.897Z,4.45
2018-04-22T23:06:16.353Z,3.87
2018-04-22T23:08:43.801Z,6.18
2018-04-22T23:11:12.029Z,5.32
2018-04-22T23:13:39.478Z,4.22
2018-04-22T23:16:06.931Z,4.78
2018-04-22T23:18:34.382Z,4.03
2018-04-22T23:21:01.816Z,4.97
2018-04-22T23:23:29.259Z,3.70
2018-04-22T23:25:56.738Z,5.03
2018-04-22T23:28:24.194Z,3.50
2018-04-22T23:30:51.639Z,4.82
2018-04-22T23:33:19.091Z,5.60
2018-04-22T23:35:46.523Z,3.72
2018-04-22T23:38:13.992Z,3.92
2018-04-22T23:40:41.417Z,3.55
2018-04-22T23:43:08.924Z,4.05
2018-04-22T23:45:36.368Z,3.92
2018-04-22T23:48:03.853Z,3.55
2018-04-22T23:50:31.306Z,3.62
2018-04-22T23:52:58.768Z,5.15
2018-04-22T23:55:26.214Z,4.03
2018-04-22T23:57:53.664Z,3.40
